Terminal Aerodrome Forecast
Issued by NWS

Home | Current Version | Previous Version | Text Only | Print | Product List | Glossary On
Versions: 1 2 3 4 5 6 7 8 9 10 11 12 13 14 15 16 17 18 19 20 21 22 23 24 25 26 27 28 29 30 31 32 33 34 35 36 37 38 39 40 41 42 43 44 45 46 47 48 49 50
000
FTUS41 KCTP 251135
TAFUNV
TAF
KUNV 251135Z 2512/2612 25007KT 6SM HZ VCSH SCT040
     FM251700 26010G20KT 6SM -SHRA BKN040
      TEMPO 2518/2522 3SM -TSRA OVC030CB
     FM252300 28010G20KT P6SM VCSH SCT050
     FM260100 27006KT P6SM SCT040
     FM260600 VRB03KT 4SM BR SKC=

USA.gov is the U.S. government's official web portal to all federal, state and local government web resources and services.